createdAt,value
2023-04-06T00:02:12.688Z,2.49
2023-04-06T00:04:40.980Z,2.04
2023-04-06T00:07:08.448Z,2.45
2023-04-06T00:09:39.150Z,2.07
2023-04-06T00:12:08.290Z,2.09
2023-04-06T00:14:35.900Z,2.08
2023-04-06T00:17:04.146Z,2.09
2023-04-06T00:19:31.162Z,1.99
2023-04-06T00:22:09.278Z,1.63
2023-04-06T00:24:42.832Z,2.35
2023-04-06T00:27:13.904Z,2.33
2023-04-06T00:29:42.299Z,2.41
2023-04-06T00:32:12.322Z,1.81
2023-04-06T00:34:42.879Z,2.44
2023-04-06T00:37:12.899Z,2.33
2023-04-06T00:39:41.675Z,2.22
2023-04-06T00:42:15.507Z,2.40
2023-04-06T00:44:45.928Z,1.96
2023-04-06T00:47:15.193Z,2.33
2023-04-06T00:49:42.218Z,1.90
2023-04-06T00:52:11.197Z,1.99
2023-04-06T00:54:38.471Z,2.35
2023-04-06T00:57:14.598Z,2.09
2023-04-06T00:59:50.636Z,1.53
2023-04-06T01:02:18.710Z,1.45
2023-04-06T01:04:46.879Z,2.06
2023-04-06T01:07:13.761Z,1.98
2023-04-06T01:09:43.293Z,1.89
2023-04-06T01:12:15.776Z,1.98
2023-04-06T01:14:44.188Z,2.00
2023-04-06T01:17:15.157Z,1.34
2023-04-06T01:19:46.512Z,1.31
2023-04-06T01:22:21.665Z,1.21
2023-04-06T01:24:49.059Z,1.25
2023-04-06T01:27:17.372Z,1.84
2023-04-06T01:29:44.539Z,1.85
2023-04-06T01:32:23.166Z,1.60
2023-04-06T01:34:50.683Z,1.87
2023-04-06T01:37:19.944Z,1.86
2023-04-06T01:39:48.768Z,1.83
2023-04-06T01:42:21.355Z,1.70
2023-04-06T01:44:51.470Z,1.75
2023-04-06T01:47:23.271Z,1.45
2023-04-06T01:49:53.408Z,0.97
2023-04-06T01:52:26.205Z,1.61
2023-04-06T01:54:54.310Z,1.62
2023-04-06T01:57:22.012Z,1.45
2023-04-06T01:59:52.004Z,1.79
2023-04-06T02:02:20.064Z,1.82
2023-04-06T02:04:54.368Z,1.75
2023-04-06T02:07:22.752Z,1.67
2023-04-06T02:09:55.805Z,1.27
2023-04-06T02:12:29.131Z,0.91
2023-04-06T02:14:57.713Z,1.52
2023-04-06T02:17:25.529Z,1.27
2023-04-06T02:19:52.804Z,0.98
2023-04-06T02:22:19.798Z,0.72
2023-04-06T02:24:50.605Z,1.35
2023-04-06T02:27:21.125Z,1.08
2023-04-06T02:29:48.452Z,1.33
2023-04-06T02:32:15.662Z,1.31
2023-04-06T02:34:42.939Z,1.36
2023-04-06T02:37:13.272Z,0.92
2023-04-06T02:39:44.084Z,0.77
2023-04-06T02:42:13.659Z,0.40
2023-04-06T02:44:42.657Z,0.52
2023-04-06T02:47:12.289Z,0.17
2023-04-06T02:49:39.096Z,0.83
2023-04-06T02:52:08.381Z,0.73
2023-04-06T02:54:38.219Z,0.31
2023-04-06T02:57:05.765Z,0.75
2023-04-06T02:59:32.889Z,0.00
2023-04-06T03:01:59.867Z,0.39
2023-04-06T03:04:26.795Z,0.67
2023-04-06T03:06:55.472Z,0.60
2023-04-06T03:09:23.973Z,0.70
2023-04-06T03:11:52.249Z,0.21
2023-04-06T03:14:23.391Z,0.68
2023-04-06T03:16:54.947Z,0.62
2023-04-06T03:19:22.649Z,0.66
2023-04-06T03:21:50.876Z,0.66
2023-04-06T03:24:17.824Z,0.33
2023-04-06T03:26:47.731Z,-0.08
2023-04-06T03:29:14.722Z,0.27
2023-04-06T03:31:41.710Z,-0.19
2023-04-06T03:34:08.866Z,0.55
2023-04-06T03:36:38.236Z,0.55
2023-04-06T03:39:11.783Z,0.54
2023-04-06T03:41:39.571Z,0.52
2023-04-06T03:44:08.642Z,0.40
2023-04-06T03:46:35.557Z,0.45
2023-04-06T03:49:02.435Z,0.24
2023-04-06T03:51:30.325Z,0.32
2023-04-06T03:53:57.027Z,0.41
2023-04-06T03:56:24.400Z,0.53
2023-04-06T03:58:54.488Z,0.20
2023-04-06T04:01:26.958Z,0.71
2023-04-06T04:03:56.243Z,0.17
2023-04-06T04:06:25.655Z,0.16
2023-04-06T04:08:52.432Z,0.10
2023-04-06T04:11:19.336Z,0.07
2023-04-06T04:13:46.615Z,0.39
2023-04-06T04:16:13.717Z,0.34
2023-04-06T04:18:41.224Z,-0.07
2023-04-06T04:21:11.047Z,0.05
2023-04-06T04:23:38.410Z,0.37
2023-04-06T04:26:08.459Z,0.33
2023-04-06T04:28:43.462Z,-0.10
2023-04-06T04:31:11.873Z,-0.27
2023-04-06T04:33:39.366Z,0.21
2023-04-06T04:36:15.376Z,0.05
2023-04-06T04:38:43.409Z,-0.07
2023-04-06T04:41:12.027Z,-0.08
2023-04-06T04:43:39.501Z,-0.31
2023-04-06T04:46:07.641Z,0.06
2023-04-06T04:48:34.268Z,-0.22
2023-04-06T04:51:10.305Z,0.38
2023-04-06T04:53:41.816Z,0.22
2023-04-06T04:56:10.523Z,-0.26
2023-04-06T04:58:40.616Z,0.17
2023-04-06T05:01:07.743Z,0.30
2023-04-06T05:03:41.586Z,-0.34
2023-04-06T05:06:13.296Z,0.00
2023-04-06T05:08:40.969Z,-0.03
2023-04-06T05:11:08.535Z,-0.02
2023-04-06T05:13:36.292Z,0.24
2023-04-06T05:16:03.317Z,-0.24
2023-04-06T05:18:32.120Z,0.42
2023-04-06T05:21:29.183Z,0.45
2023-04-06T05:23:57.562Z,0.46
2023-04-06T05:26:30.700Z,-0.08
2023-04-06T05:29:00.845Z,0.65
2023-04-06T05:31:28.190Z,0.69
2023-04-06T05:33:55.543Z,0.67
2023-04-06T05:36:27.678Z,0.67
2023-04-06T05:38:58.116Z,0.68
2023-04-06T05:41:32.082Z,0.72
2023-04-06T05:43:59.378Z,0.57
2023-04-06T05:46:26.446Z,0.88
2023-04-06T05:48:53.516Z,0.77
2023-04-06T05:51:21.384Z,1.04
2023-04-06T05:53:48.495Z,0.72
2023-04-06T05:56:26.668Z,1.12
2023-04-06T05:59:00.883Z,1.14
2023-04-06T06:01:32.578Z,1.19
2023-04-06T06:04:09.591Z,1.27
2023-04-06T06:06:46.979Z,0.69
2023-04-06T06:09:14.495Z,1.11
2023-04-06T06:11:46.130Z,1.42
2023-04-06T06:14:23.748Z,1.29
2023-04-06T06:17:01.119Z,1.51
2023-04-06T06:19:38.838Z,1.35
2023-04-06T06:22:07.625Z,1.78
2023-04-06T06:24:35.085Z,1.89
2023-04-06T06:27:11.216Z,1.97
2023-04-06T06:29:39.153Z,2.09
2023-04-06T06:32:06.436Z,2.03
2023-04-06T06:34:44.289Z,2.30
2023-04-06T06:37:15.115Z,2.42
2023-04-06T06:39:42.609Z,2.47
2023-04-06T06:42:33.773Z,2.52
2023-04-06T06:45:12.030Z,2.61
2023-04-06T06:47:39.137Z,2.90
2023-04-06T06:50:08.359Z,3.09
2023-04-06T06:52:35.493Z,3.29
2023-04-06T06:55:03.772Z,3.56
2023-04-06T06:57:31.565Z,3.82
2023-04-06T07:00:01.763Z,3.93
2023-04-06T07:02:42.726Z,4.03
2023-04-06T07:05:28.565Z,4.30
2023-04-06T07:07:59.132Z,4.71
2023-04-06T07:10:31.173Z,5.43
2023-04-06T07:12:58.050Z,5.73
2023-04-06T07:18:06.507Z,6.45
2023-04-06T07:20:38.017Z,6.65
2023-04-06T07:23:06.977Z,6.47
2023-04-06T07:25:33.704Z,6.39
2023-04-06T07:28:02.721Z,6.60
2023-04-06T07:30:35.044Z,6.69
2023-04-06T07:33:05.628Z,6.72
2023-04-06T07:35:42.131Z,6.54
2023-04-06T07:38:09.077Z,6.43
2023-04-06T07:40:37.179Z,6.18
2023-04-06T07:45:59.766Z,6.47
2023-04-06T07:48:26.809Z,7.13
2023-04-06T07:50:53.900Z,7.63
2023-04-06T07:53:22.021Z,7.91
2023-04-06T07:55:48.851Z,8.20
2023-04-06T07:58:17.750Z,8.37
2023-04-06T08:00:44.754Z,8.30
2023-04-06T08:03:12.175Z,8.51
2023-04-06T08:05:39.432Z,8.91
2023-04-06T08:08:06.426Z,9.11
2023-04-06T08:10:40.189Z,9.01
2023-04-06T08:13:10.920Z,9.30
2023-04-06T08:18:25.072Z,9.42
2023-04-06T08:20:53.327Z,9.23
2023-04-06T08:23:24.847Z,8.88
2023-04-06T08:25:55.267Z,8.37
2023-04-06T08:28:22.758Z,7.89
2023-04-06T08:30:57.697Z,7.73
2023-04-06T08:33:25.927Z,7.44
2023-04-06T08:36:02.155Z,7.69
2023-04-06T08:38:30.951Z,7.77
2023-04-06T08:40:59.270Z,8.03
2023-04-06T08:43:29.397Z,8.03
2023-04-06T08:45:59.225Z,8.47
2023-04-06T08:48:28.208Z,9.14
2023-04-06T08:51:01.996Z,9.36
2023-04-06T08:53:29.188Z,9.30
2023-04-06T08:55:59.286Z,8.94
2023-04-06T09:01:52.073Z,9.09
2023-04-06T09:04:28.781Z,9.40
2023-04-06T09:06:56.079Z,9.40
2023-04-06T09:09:30.364Z,9.36
2023-04-06T09:12:02.291Z,9.60
2023-04-06T09:14:53.259Z,8.89
2023-04-06T09:17:25.562Z,9.24
2023-04-06T09:20:02.321Z,9.36
2023-04-06T09:22:42.311Z,9.29
2023-04-06T09:25:17.205Z,9.54
2023-04-06T09:27:47.916Z,9.93
2023-04-06T09:30:19.617Z,10.14
2023-04-06T09:35:34.240Z,10.33
2023-04-06T09:38:22.243Z,10.31
2023-04-06T09:41:00.108Z,10.08
2023-04-06T09:43:28.859Z,9.96
2023-04-06T09:45:58.706Z,9.52
2023-04-06T09:48:33.679Z,9.52
2023-04-06T09:51:04.476Z,9.69
2023-04-06T09:53:34.458Z,9.31
2023-04-06T09:56:10.881Z,9.46
2023-04-06T09:58:49.828Z,9.83
2023-04-06T10:01:21.541Z,10.25
2023-04-06T10:04:08.964Z,10.39
2023-04-06T10:06:41.519Z,10.46
2023-04-06T10:09:14.901Z,10.83
2023-04-06T10:14:27.743Z,11.30
2023-04-06T10:17:03.846Z,11.07
2023-04-06T10:20:04.940Z,11.19
2023-04-06T10:23:07.181Z,10.35
2023-04-06T10:25:56.613Z,11.16
2023-04-06T10:28:25.865Z,11.05
2023-04-06T10:36:52.284Z,11.48
2023-04-06T10:39:30.243Z,11.22
2023-04-06T10:44:35.226Z,11.03
2023-04-06T10:47:07.304Z,11.19
2023-04-06T10:49:39.659Z,11.37
2023-04-06T10:52:08.715Z,11.49
2023-04-06T10:57:33.652Z,12.09
2023-04-06T11:00:00.671Z,12.18
2023-04-06T11:02:29.745Z,12.50
2023-04-06T11:05:00.773Z,12.03
2023-04-06T11:07:30.653Z,12.29
2023-04-06T11:10:16.598Z,12.00
2023-04-06T11:12:45.542Z,12.18
2023-04-06T11:15:13.311Z,12.24
2023-04-06T11:17:42.913Z,12.43
2023-04-06T11:20:12.564Z,12.94
2023-04-06T11:22:57.778Z,13.14
2023-04-06T11:25:27.300Z,13.48
2023-04-06T11:27:58.188Z,13.30
2023-04-06T11:30:34.317Z,12.75
2023-04-06T11:33:04.143Z,12.52
2023-04-06T11:35:32.611Z,12.70
2023-04-06T11:40:54.380Z,13.25
2023-04-06T11:43:34.884Z,13.44
2023-04-06T11:46:05.676Z,13.90
2023-04-06T11:48:36.174Z,13.58
2023-04-06T11:51:03.201Z,13.31
2023-04-06T11:53:31.019Z,12.61
2023-04-06T11:58:38.994Z,12.90
2023-04-06T12:01:06.089Z,13.19
2023-04-06T12:03:34.472Z,13.22
2023-04-06T12:06:06.608Z,13.27
2023-04-06T12:08:38.674Z,13.05
2023-04-06T12:11:18.952Z,13.39
2023-04-06T12:13:49.251Z,13.70
2023-04-06T12:16:24.039Z,13.79
2023-04-06T12:18:53.805Z,13.83
2023-04-06T12:21:22.641Z,14.44
2023-04-06T12:23:50.255Z,13.89
2023-04-06T12:26:20.710Z,13.78
2023-04-06T12:31:43.749Z,13.97
2023-04-06T12:34:15.786Z,14.44
2023-04-06T12:36:47.632Z,14.91
2023-04-06T12:50:19.952Z,13.71
2023-04-06T12:52:50.553Z,13.63
2023-04-06T12:55:26.545Z,13.66
2023-04-06T12:57:53.552Z,13.76
2023-04-06T13:00:24.385Z,13.45
2023-04-06T13:02:51.190Z,13.44
2023-04-06T13:05:20.054Z,13.62
2023-04-06T13:10:29.723Z,13.38
2023-04-06T13:12:56.381Z,14.06
2023-04-06T13:15:27.580Z,14.13
2023-04-06T13:17:59.861Z,14.05
2023-04-06T13:20:27.297Z,13.93
2023-04-06T13:22:55.623Z,14.09
2023-04-06T13:25:32.149Z,14.02
2023-04-06T13:27:59.399Z,14.10
2023-04-06T13:30:28.911Z,13.87
2023-04-06T13:32:57.250Z,13.71
2023-04-06T13:35:28.232Z,13.94
2023-04-06T13:37:57.324Z,13.85
2023-04-06T13:40:25.360Z,14.30
2023-04-06T13:42:58.056Z,14.70
2023-04-06T13:45:25.415Z,14.90
2023-04-06T13:47:53.403Z,14.93
2023-04-06T13:50:31.298Z,14.73
2023-04-06T13:52:58.785Z,15.00
2023-04-06T13:55:27.143Z,15.22
2023-04-06T13:57:54.657Z,15.40
2023-04-06T14:00:24.032Z,15.78
2023-04-06T14:02:55.985Z,15.45
2023-04-06T14:05:24.959Z,15.21
2023-04-06T14:07:54.440Z,15.35
2023-04-06T14:10:24.781Z,15.12
2023-04-06T14:12:53.532Z,15.02
2023-04-06T14:15:25.248Z,15.17
2023-04-06T14:17:55.496Z,15.17
2023-04-06T14:20:23.928Z,15.06
2023-04-06T14:22:53.432Z,14.77
2023-04-06T14:25:21.601Z,14.87
2023-04-06T14:27:48.498Z,14.57
2023-04-06T14:30:15.876Z,14.93
2023-04-06T14:35:23.739Z,14.92
2023-04-06T14:37:51.047Z,14.67
2023-04-06T14:40:25.819Z,14.64
2023-04-06T14:42:54.290Z,14.67
2023-04-06T14:45:28.115Z,14.67
2023-04-06T14:47:56.213Z,14.76
2023-04-06T14:50:22.960Z,14.82
2023-04-06T14:52:53.348Z,14.51
2023-04-06T14:55:21.042Z,14.58
2023-04-06T14:57:51.723Z,14.68
2023-04-06T15:00:19.052Z,14.83
2023-04-06T15:02:57.228Z,14.87
2023-04-06T15:05:23.953Z,14.58
2023-04-06T15:07:51.914Z,14.29
2023-04-06T15:10:19.939Z,14.34
2023-04-06T15:12:50.119Z,14.44
2023-04-06T15:15:19.437Z,14.24
2023-04-06T15:17:46.390Z,13.95
2023-04-06T15:20:13.561Z,14.57
2023-04-06T15:22:48.135Z,14.27
2023-04-06T15:25:24.651Z,14.57
2023-04-06T15:27:53.192Z,14.56
2023-04-06T15:30:19.953Z,14.54
2023-04-06T15:33:02.674Z,14.03
2023-04-06T15:35:31.164Z,13.85
2023-04-06T15:37:58.217Z,13.93
2023-04-06T15:40:26.497Z,13.88
2023-04-06T15:43:00.615Z,13.75
2023-04-06T15:45:28.715Z,13.86
2023-04-06T15:47:58.886Z,13.86
2023-04-06T15:53:10.402Z,13.67
2023-04-06T15:55:38.285Z,13.98
2023-04-06T15:58:04.999Z,13.94
2023-04-06T16:00:33.177Z,13.79
2023-04-06T16:03:07.955Z,13.54
2023-04-06T16:05:48.359Z,13.48
2023-04-06T16:08:21.024Z,13.38
2023-04-06T16:10:51.662Z,13.12
2023-04-06T16:13:18.142Z,13.19
2023-04-06T16:15:44.856Z,13.06
2023-04-06T16:18:11.992Z,12.86
2023-04-06T16:20:40.659Z,13.07
2023-04-06T16:23:09.285Z,12.91
2023-04-06T16:25:36.484Z,12.81
2023-04-06T16:28:03.487Z,12.77
2023-04-06T16:30:31.494Z,12.43
2023-04-06T16:33:01.915Z,12.67
2023-04-06T16:35:37.105Z,12.71
2023-04-06T16:38:07.606Z,12.84
2023-04-06T16:46:47.271Z,12.82
2023-04-06T16:52:06.276Z,12.64
2023-04-06T16:54:38.046Z,12.51
2023-04-06T16:57:06.481Z,12.34
2023-04-06T16:59:37.125Z,12.35
2023-04-06T17:02:19.252Z,12.18
2023-04-06T17:04:45.913Z,11.94
2023-04-06T17:07:17.857Z,12.25
2023-04-06T17:09:57.645Z,12.13
2023-04-06T17:12:24.478Z,12.05
2023-04-06T17:14:59.129Z,12.03
2023-04-06T17:17:28.278Z,12.09
2023-04-06T17:20:02.703Z,12.11
2023-04-06T17:22:31.210Z,12.14
2023-04-06T17:27:39.721Z,11.81
2023-04-06T17:30:09.342Z,11.81
2023-04-06T17:32:37.739Z,11.78
2023-04-06T17:35:31.151Z,11.34
2023-04-06T17:37:57.955Z,11.83
2023-04-06T17:40:28.923Z,11.75
2023-04-06T17:42:55.988Z,11.56
2023-04-06T17:45:23.903Z,11.75
2023-04-06T17:47:53.160Z,11.81
2023-04-06T17:50:39.417Z,11.42
2023-04-06T17:53:11.684Z,11.06
2023-04-06T17:55:42.690Z,11.62
2023-04-06T17:58:13.006Z,11.20
2023-04-06T18:00:47.656Z,11.17
2023-04-06T18:03:23.356Z,11.10
2023-04-06T18:05:52.817Z,11.21
2023-04-06T18:08:20.014Z,11.45
2023-04-06T18:10:49.751Z,11.01
2023-04-06T18:13:16.445Z,11.03
2023-04-06T18:15:43.508Z,11.29
2023-04-06T18:18:12.108Z,11.19
2023-04-06T18:20:44.929Z,10.81
2023-04-06T18:23:17.614Z,11.13
2023-04-06T18:25:46.543Z,10.48
2023-04-06T18:28:15.350Z,10.88
2023-04-06T18:30:44.761Z,10.64
2023-04-06T18:33:20.267Z,10.65
2023-04-06T18:35:47.322Z,10.24
2023-04-06T18:38:15.916Z,10.23
2023-04-06T18:40:44.426Z,9.94
2023-04-06T18:56:49.141Z,9.86
2023-04-06T18:59:28.640Z,10.31
2023-04-06T19:01:59.014Z,10.02
2023-04-06T19:04:36.922Z,9.75
2023-04-06T19:09:49.167Z,9.56
2023-04-06T19:12:16.257Z,9.09
2023-04-06T19:14:55.520Z,9.00
2023-04-06T19:17:22.547Z,9.28
2023-04-06T19:19:52.312Z,9.23
2023-04-06T19:22:21.745Z,9.07
2023-04-06T19:24:53.912Z,9.10
2023-04-06T19:27:20.705Z,9.00
2023-04-06T19:29:50.978Z,8.68
2023-04-06T19:32:18.093Z,8.59
2023-04-06T19:34:52.673Z,8.33
2023-04-06T19:37:21.040Z,8.83
2023-04-06T19:39:50.094Z,8.66
2023-04-06T19:42:19.721Z,8.31
2023-04-06T19:44:50.214Z,8.35
2023-04-06T19:47:17.364Z,8.86
2023-04-06T19:52:24.698Z,8.69
2023-04-06T19:54:51.574Z,8.26
2023-04-06T19:57:18.876Z,8.25
2023-04-06T19:59:48.160Z,8.21
2023-04-06T20:02:15.568Z,8.34
2023-04-06T20:04:42.666Z,8.25
2023-04-06T20:07:12.598Z,8.20
2023-04-06T20:09:40.399Z,7.94
2023-04-06T20:12:10.270Z,7.96
2023-04-06T20:14:40.001Z,8.10
2023-04-06T20:17:07.992Z,7.95
2023-04-06T20:19:46.071Z,7.55
2023-04-06T20:22:13.186Z,7.88
2023-04-06T20:24:40.412Z,7.83
2023-04-06T20:27:08.534Z,7.92
2023-04-06T20:29:35.696Z,7.53
2023-04-06T20:32:03.668Z,7.72
2023-04-06T20:34:30.346Z,7.74
2023-04-06T20:36:58.487Z,7.78
2023-04-06T20:39:34.864Z,7.77
2023-04-06T20:42:01.711Z,7.73
2023-04-06T20:44:31.316Z,7.63
2023-04-06T20:47:02.256Z,7.78
2023-04-06T20:49:30.997Z,7.84
2023-04-06T20:52:04.272Z,7.27
2023-04-06T20:54:31.380Z,7.86
2023-04-06T20:57:04.518Z,7.91
2023-04-06T20:59:32.818Z,7.81
2023-04-06T21:02:03.807Z,8.07
2023-04-06T21:04:31.117Z,7.72
2023-04-06T21:07:00.037Z,7.93
2023-04-06T21:09:31.446Z,8.07
2023-04-06T21:11:58.839Z,8.04
2023-04-06T21:14:26.587Z,7.62
2023-04-06T21:17:02.553Z,7.72
2023-04-06T21:19:35.834Z,7.54
2023-04-06T21:22:05.233Z,7.71
2023-04-06T21:24:41.178Z,7.48
2023-04-06T21:27:17.923Z,7.65
2023-04-06T21:29:50.140Z,7.66
2023-04-06T21:32:17.816Z,7.43
2023-04-06T21:34:50.435Z,7.75
2023-04-06T21:40:06.021Z,7.20
2023-04-06T21:42:36.469Z,7.08
2023-04-06T21:45:03.748Z,7.44
2023-04-06T21:47:46.352Z,7.67
2023-04-06T21:50:20.356Z,7.42
2023-04-06T21:52:49.801Z,7.65
2023-04-06T21:55:16.593Z,7.49
2023-04-06T21:57:57.774Z,7.53
2023-04-06T22:00:27.953Z,7.46
2023-04-06T22:02:57.475Z,7.52
2023-04-06T22:05:26.395Z,7.49
2023-04-06T22:07:54.466Z,7.43
2023-04-06T22:10:24.753Z,7.05
2023-04-06T22:12:59.601Z,6.75
2023-04-06T22:15:35.602Z,7.57
2023-04-06T22:18:05.269Z,7.48
2023-04-06T22:20:33.676Z,7.03
2023-04-06T22:23:03.261Z,7.09
2023-04-06T22:25:36.087Z,6.65
2023-04-06T22:28:10.565Z,7.37
2023-04-06T22:31:10.692Z,7.30
2023-04-06T22:33:38.856Z,7.23
2023-04-06T22:36:11.952Z,6.69
2023-04-06T22:38:38.728Z,7.12
2023-04-06T22:41:07.303Z,7.08
2023-04-06T22:43:36.763Z,7.37
2023-04-06T22:46:06.274Z,6.97
2023-04-06T22:48:36.403Z,7.05
2023-04-06T22:51:05.096Z,7.45
2023-04-06T22:53:32.387Z,7.39
2023-04-06T22:55:59.825Z,7.13
2023-04-06T22:58:28.001Z,7.39
2023-04-06T23:00:55.665Z,7.01
2023-04-06T23:03:24.905Z,7.46
2023-04-06T23:05:53.826Z,7.47
2023-04-06T23:08:20.886Z,7.42
2023-04-06T23:10:54.256Z,7.00
2023-04-06T23:13:21.099Z,6.79
2023-04-06T23:15:49.124Z,7.26
2023-04-06T23:18:15.805Z,7.25
2023-04-06T23:20:43.629Z,7.00
2023-04-06T23:23:10.549Z,7.43
2023-04-06T23:25:44.607Z,6.65
2023-04-06T23:28:11.481Z,7.18
2023-04-06T23:30:38.179Z,7.21
2023-04-06T23:33:05.608Z,6.90
2023-04-06T23:35:32.435Z,6.71
2023-04-06T23:38:01.927Z,7.28
2023-04-06T23:40:28.884Z,6.67
2023-04-06T23:42:55.848Z,6.76
2023-04-06T23:45:22.719Z,6.89
2023-04-06T23:47:50.069Z,7.30
2023-04-06T23:50:18.251Z,7.29
2023-04-06T23:52:47.038Z,7.28
2023-04-06T23:55:13.609Z,7.12
2023-04-06T23:57:40.556Z,7.14
